Time;durP1;ratioP1;P1;durP2;ratioP2;P2;SDS_P1;SDS_P2;PMS_P1;PMS_P2;Temp;Humidity;BMP_temperature;BMP_pressure;BME280_temperature;BME280_humidity;BME280_pressure;Samples;Min_cycle;Max_cycle;Signal;HPM_P1;HPM_P2
2022/04/22 00:01:16;;;;;;;;;6.50;6.50;;;;;13.80;100.00;100012.25;6217832;22;45307;-84
2022/04/22 00:03:42;;;;;;;;;6.00;6.00;;;;;13.80;100.00;100012.25;6221018;22;45949;-84
2022/04/22 00:06:07;;;;;;;;;4.25;4.25;;;;;13.76;100.00;100010.84;6219251;22;44770;-86
2022/04/22 00:08:33;;;;;;;;;10.00;8.00;;;;;13.72;100.00;100009.44;6192678;22;44667;-84
2022/04/22 00:13:43;;;;;;;;;8.00;8.00;;;;;13.63;100.00;100005.78;6192064;22;45292;-84
2022/04/22 00:16:09;;;;;;;;;8.00;8.00;;;;;13.60;100.00;100008.75;6186934;22;45297;-84
2022/04/22 00:18:35;;;;;;;;;8.40;6.80;;;;;13.57;100.00;100003.69;6214771;22;45144;-85
2022/04/22 00:21:01;;;;;;;;;10.50;8.50;;;;;13.54;100.00;100012.84;6187425;22;44937;-84
2022/04/22 00:23:27;;;;;;;;;4.50;4.50;;;;;13.52;100.00;100006.78;6187832;22;46405;-82
2022/04/22 00:25:53;;;;;;;;;6.25;6.00;;;;;13.52;100.00;99997.94;6218108;22;45343;-85
2022/04/22 00:28:19;;;;;;;;;4.75;4.75;;;;;13.48;100.00;99999.19;6219966;22;45260;-84
2022/04/22 00:30:44;;;;;;;;;7.25;7.25;;;;;13.45;100.00;99996.81;6221186;22;44674;-84
2022/04/22 00:33:10;;;;;;;;;7.50;7.50;;;;;13.44;100.00;100000.44;6217350;22;45366;-84
2022/04/22 00:35:36;;;;;;;;;7.00;6.75;;;;;13.41;100.00;99998.06;6187828;22;45384;-84
2022/04/22 00:38:01;;;;;;;;;8.00;6.00;;;;;13.40;100.00;99994.56;6188044;22;45204;-84
2022/04/22 00:40:27;;;;;;;;;7.25;6.50;;;;;13.37;100.00;99992.16;6187365;22;45510;-85
2022/04/22 00:42:53;;;;;;;;;10.00;7.25;;;;;13.34;100.00;99995.97;6187312;22;46803;-83
2022/04/22 00:45:20;;;;;;;;;6.00;6.00;;;;;13.32;100.00;99995.25;6214283;22;44607;-83
2022/04/22 00:47:46;;;;;;;;;7.00;6.50;;;;;13.28;100.00;99991.16;6188635;22;45169;-84
2022/04/22 00:50:12;;;;;;;;;12.75;7.50;;;;;13.25;100.00;99993.28;6187017;22;44850;-84
2022/04/22 00:52:38;;;;;;;;;7.25;7.25;;;;;13.21;100.00;99992.69;6189581;22;46923;-83
2022/04/22 00:55:04;;;;;;;;;9.25;7.00;;;;;13.21;100.00;99994.50;6218482;22;45271;-84
2022/04/22 00:57:31;;;;;;;;;7.00;6.25;;;;;13.17;100.00;99990.44;6217843;22;45580;-84
2022/04/22 00:59:57;;;;;;;;;10.00;10.00;;;;;13.15;100.00;99987.03;6223578;22;44824;-84
2022/04/22 01:02:22;;;;;;;;;10.50;7.75;;;;;13.11;100.00;99987.31;6198906;22;47220;-83
2022/04/22 01:10:16;;;;;;;;;11.25;10.75;;;;;13.06;100.00;99978.06;6217691;22;45390;-84
2022/04/22 01:12:41;;;;;;;;;10.25;8.50;;;;;13.00;100.00;99982.09;6219073;22;45021;-83
2022/04/22 01:15:07;;;;;;;;;10.25;9.00;;;;;12.97;100.00;99981.53;6218468;22;45383;-84
2022/04/22 01:17:32;;;;;;;;;10.00;8.50;;;;;12.96;100.00;99980.69;6214655;22;45390;-85
2022/04/22 01:19:58;;;;;;;;;10.25;9.00;;;;;12.94;100.00;99979.13;6188538;22;44791;-85
2022/04/22 01:22:24;;;;;;;;;8.25;8.25;;;;;12.90;100.00;99978.56;6217159;22;45399;-83
2022/04/22 01:24:53;;;;;;;;;5.75;5.75;;;;;12.85;100.00;99970.13;6189169;22;44828;-84
2022/04/22 01:27:19;;;;;;;;;8.25;8.25;;;;;12.80;100.00;99964.38;6187502;22;44753;-84
2022/04/22 01:29:45;;;;;;;;;7.75;7.75;;;;;12.75;100.00;99966.59;6214026;22;45185;-82
2022/04/22 01:32:10;;;;;;;;;9.00;9.00;;;;;12.76;100.00;99960.28;6186601;22;46556;-83
2022/04/22 01:34:37;;;;;;;;;10.50;9.00;;;;;12.74;100.00;99956.91;6214700;22;44702;-86
2022/04/22 01:37:02;;;;;;;;;10.50;9.50;;;;;12.75;100.00;99958.59;6188103;22;44730;-85
2022/04/22 01:39:30;;;;;;;;;9.00;6.75;;;;;12.77;100.00;99959.31;6187738;22;45499;-83
2022/04/22 01:41:55;;;;;;;;;8.00;7.25;;;;;12.76;100.00;99955.78;6217015;22;45065;-83
2022/04/22 01:44:20;;;;;;;;;7.75;7.75;;;;;12.75;100.00;99951.44;6191736;22;45105;-83
2022/04/22 01:46:46;;;;;;;;;12.00;9.00;;;;;12.77;100.00;99952.16;6216098;22;44639;-84
2022/04/22 01:49:11;;;;;;;;;9.75;9.75;;;;;12.79;100.00;99938.69;6219254;22;44698;-83
2022/04/22 01:51:38;;;;;;;;;9.50;9.25;;;;;12.84;100.00;99947.97;6192105;22;46001;-83
2022/04/22 01:54:03;;;;;;;;;9.75;9.50;;;;;12.90;100.00;99951.06;6190310;22;45305;-83
2022/04/22 01:56:29;;;;;;;;;11.25;10.75;;;;;12.91;100.00;99948.28;6220453;22;45241;-82
2022/04/22 01:58:54;;;;;;;;;10.00;9.00;;;;;12.92;100.00;99944.63;6223494;22;44750;-82
2022/04/22 02:01:20;;;;;;;;;9.50;8.25;;;;;12.96;100.00;99945.16;6196527;22;45937;-84
2022/04/22 02:03:45;;;;;;;;;7.00;5.75;;;;;12.95;100.00;99935.50;6225480;22;45276;-85
2022/04/22 02:06:10;;;;;;;;;9.50;8.00;;;;;12.96;100.00;99940.72;6224709;22;44720;-84
2022/04/22 02:08:36;;;;;;;;;13.50;10.75;;;;;12.97;100.00;99938.88;6203761;22;44896;-84
2022/04/22 02:11:03;;;;;;;;;14.25;11.00;;;;;12.95;100.00;99940.81;6233263;22;44911;-83
2022/04/22 02:13:28;;;;;;;;;11.25;10.00;;;;;12.96;100.00;99939.84;6203669;22;44929;-83
2022/04/22 02:15:54;;;;;;;;;18.00;11.00;;;;;12.92;100.00;99941.13;6196141;22;44591;-83
2022/04/22 02:18:19;;;;;;;;;14.50;10.75;;;;;12.90;100.00;99938.56;6196627;22;45482;-84
2022/04/22 02:20:44;;;;;;;;;11.00;10.00;;;;;12.88;100.00;99939.69;6219000;22;45281;-84
2022/04/22 02:23:10;;;;;;;;;13.25;12.50;;;;;12.86;100.00;99946.03;6219563;22;45200;-85
2022/04/22 02:25:35;;;;;;;;;10.00;10.00;;;;;12.82;100.00;99933.09;6218495;22;45279;-83
2022/04/22 02:30:45;;;;;;;;;16.00;10.25;;;;;12.75;100.00;99929.28;6220587;22;44987;-84
2022/04/22 02:33:11;;;;;;;;;14.50;14.50;;;;;12.73;100.00;99929.44;6198263;22;45184;-83
2022/04/22 02:35:36;;;;;;;;;6.50;6.50;;;;;12.69;100.00;99936.00;6221387;22;45148;-84
2022/04/22 02:38:02;;;;;;;;;3.50;2.50;;;;;12.67;100.00;99927.31;6219767;22;44649;-83
2022/04/22 02:45:57;;;;;;;;;13.75;12.75;;;;;12.55;100.00;99923.91;6156081;23;44754;-84
2022/04/22 02:48:22;;;;;;;;;12.75;12.00;;;;;12.53;100.00;99920.53;6154522;23;45361;-84
2022/04/22 02:50:47;;;;;;;;;12.25;10.75;;;;;12.48;100.00;99924.59;6129667;23;45506;-83
2022/04/22 02:53:13;;;;;;;;;11.75;11.75;;;;;12.43;100.00;99917.00;6155679;23;45427;-84
2022/04/22 02:55:47;;;;;;;;;13.50;12.25;;;;;12.39;100.00;99923.56;6155229;23;45312;-82
2022/04/22 02:58:13;;;;;;;;;12.25;12.25;;;;;12.38;100.00;99921.03;6156284;23;45603;-85
2022/04/22 03:00:38;;;;;;;;;9.75;9.75;;;;;12.33;100.00;99919.63;6124913;23;46012;-83
2022/04/22 03:03:04;;;;;;;;;10.00;9.75;;;;;12.28;100.00;99916.53;6155319;23;44691;-84
2022/04/22 03:05:29;;;;;;;;;14.25;13.00;;;;;12.23;100.00;99916.09;6157649;23;45332;-84
2022/04/22 03:07:55;;;;;;;;;15.25;11.00;;;;;12.18;100.00;99904.97;6161457;23;44895;-83
2022/04/22 03:10:20;;;;;;;;;11.50;9.00;;;;;12.16;100.00;99904.25;6166458;23;44979;-83
2022/04/22 03:12:45;;;;;;;;;13.00;11.00;;;;;12.12;100.00;99915.31;6165854;23;44733;-84
2022/04/22 03:15:11;;;;;;;;;14.00;12.75;;;;;12.09;100.00;99917.28;6132330;23;45182;-84
2022/04/22 03:17:36;;;;;;;;;11.25;10.00;;;;;12.04;100.00;99911.50;6130677;23;44771;-83
2022/04/22 03:20:03;;;;;;;;;16.75;12.00;;;;;11.99;100.00;99905.75;6152182;22;46735;-83
2022/04/22 03:22:28;;;;;;;;;12.00;12.00;;;;;11.97;100.00;99914.81;6193330;22;45148;-83
2022/04/22 03:24:54;;;;;;;;;10.25;8.50;;;;;11.93;100.00;99905.41;6220571;22;45084;-84
2022/04/22 03:27:20;;;;;;;;;15.00;12.75;;;;;11.91;100.00;99908.19;6215555;22;45228;-84
2022/04/22 03:29:45;;;;;;;;;9.25;9.25;;;;;11.89;100.00;99910.13;6215094;22;45240;-81
2022/04/22 03:32:11;;;;;;;;;15.00;13.50;;;;;11.87;100.00;99898.78;6214971;22;45272;-85
2022/04/22 03:34:36;;;;;;;;;8.75;8.00;;;;;11.86;100.00;99912.25;6217075;22;45100;-85
2022/04/22 03:37:03;;;;;;;;;15.00;13.25;;;;;11.83;100.00;99905.34;6217829;22;45382;-84
2022/04/22 03:39:28;;;;;;;;;14.75;12.75;;;;;11.80;100.00;99905.59;6189327;22;46973;-85
2022/04/22 03:41:54;;;;;;;;;10.50;10.50;;;;;11.78;100.00;99899.53;6218080;22;45181;-85
2022/04/22 03:44:19;;;;;;;;;10.75;10.00;;;;;11.76;100.00;99899.69;6216063;22;45144;-83
2022/04/22 03:46:45;;;;;;;;;9.25;9.25;;;;;11.75;100.00;99898.00;6219408;22;44804;-84
2022/04/22 03:49:10;;;;;;;;;13.25;11.00;;;;;11.71;100.00;99901.91;6214440;22;45148;-83
2022/04/22 03:51:36;;;;;;;;;10.50;10.50;;;;;11.71;100.00;99901.06;6216021;22;44693;-83
2022/04/22 03:54:02;;;;;;;;;15.00;13.50;;;;;11.70;100.00;99900.22;6215178;22;45260;-83
2022/04/22 03:59:11;;;;;;;;;10.75;10.75;;;;;11.68;100.00;99899.47;6214274;22;44827;-84
2022/04/22 04:01:36;;;;;;;;;9.00;9.00;;;;;11.67;100.00;99891.66;6214679;22;44812;-82
2022/04/22 04:04:02;;;;;;;;;12.50;11.00;;;;;11.65;100.00;99906.88;6216397;22;45159;-84
2022/04/22 04:06:27;;;;;;;;;14.25;13.00;;;;;11.63;100.00;99892.88;6189590;22;45320;-83
2022/04/22 04:17:06;;;;;;;;;15.00;12.00;;;;;11.56;100.00;99889.91;6225176;22;44671;-84
2022/04/22 04:24:59;;;;;;;;;12.25;10.75;;;;;11.48;100.00;99885.22;6219309;22;44703;-86
2022/04/22 04:27:25;;;;;;;;;10.00;9.25;;;;;11.43;100.00;99882.09;6227288;22;44860;-84
2022/04/22 04:29:50;;;;;;;;;13.50;12.00;;;;;11.43;100.00;99891.91;6204359;22;46054;-84
2022/04/22 04:32:19;;;;;;;;;11.00;11.00;;;;;11.41;100.00;99892.03;6197773;22;45387;-83
2022/04/22 04:34:44;;;;;;;;;15.75;15.75;;;;;11.37;100.00;99887.94;6201486;22;45119;-86
2022/04/22 04:37:10;;;;;;;;;17.25;17.25;;;;;11.35;100.00;99878.41;6201199;22;44788;-84
2022/04/22 04:39:36;;;;;;;;;11.00;9.50;;;;;11.32;100.00;99882.16;6222285;22;45176;-85
2022/04/22 04:42:02;;;;;;;;;16.00;15.75;;;;;11.29;100.00;99883.25;6217407;22;44623;-85
2022/04/22 04:44:28;;;;;;;;;18.67;17.00;;;;;11.28;100.00;99886.06;6215630;22;45382;-84
2022/04/22 04:46:54;;;;;;;;;11.00;9.00;;;;;11.25;100.00;99892.44;6214309;22;45330;-85
2022/04/22 04:49:19;;;;;;;;;11.50;11.50;;;;;11.21;100.00;99885.69;6212242;22;45352;-84
2022/04/22 04:51:45;;;;;;;;;13.75;12.25;;;;;11.20;100.00;99888.50;6188062;22;45245;-83
2022/04/22 04:54:10;;;;;;;;;11.00;7.00;;;;;11.19;100.00;99884.16;6188581;22;44817;-84
2022/04/22 04:56:36;;;;;;;;;13.75;11.75;;;;;11.19;100.00;99886.81;6217804;22;45326;-84
2022/04/22 04:59:01;;;;;;;;;15.00;12.67;;;;;11.19;100.00;99886.81;6218126;22;45280;-84
2022/04/22 05:01:27;;;;;;;;;13.00;12.33;;;;;11.21;100.00;99885.69;6162434;22;44753;-84
2022/04/22 05:03:52;;;;;;;;;15.00;14.00;;;;;11.24;100.00;99885.47;6187796;22;45220;-85
2022/04/22 05:06:18;;;;;;;;;16.33;11.33;;;;;11.28;100.00;99873.59;6214633;22;45184;-85
2022/04/22 05:08:43;;;;;;;;;15.00;15.00;;;;;11.31;100.00;99877.81;6214487;22;45187;-85
2022/04/22 05:11:08;;;;;;;;;14.00;14.00;;;;;11.34;100.00;99874.91;6192557;22;44688;-84
2022/04/22 05:13:34;;;;;;;;;14.75;14.75;;;;;11.37;100.00;99874.66;6222254;22;45160;-85
2022/04/22 05:16:00;;;;;;;;;14.33;13.00;;;;;11.43;100.00;99876.78;6168227;22;44725;-84
2022/04/22 05:18:29;;;;;;;;;15.75;14.75;;;;;11.43;100.00;99871.47;6226661;22;45197;-84
2022/04/22 05:20:55;;;;;;;;;16.75;15.25;;;;;11.50;100.00;99869.97;6199965;22;45430;-85
2022/04/22 05:23:21;;;;;;;;;13.75;13.75;;;;;11.56;100.00;99864.13;6202039;22;45273;-85
2022/04/22 05:25:46;;;;;;;;;14.75;14.75;;;;;11.61;100.00;99868.22;6199055;22;44841;-86
2022/04/22 05:28:11;;;;;;;;;16.50;15.50;;;;;11.68;100.00;99869.38;6219716;22;45327;-85
2022/04/22 05:33:21;;;;;;;;;16.00;14.00;;;;;11.83;100.00;99879.56;6217791;22;44746;-86
2022/04/22 05:35:46;;;;;;;;;14.00;14.00;;;;;11.89;100.00;99875.53;6189195;22;44950;-85
2022/04/22 05:38:14;;;;;;;;;15.50;13.25;;;;;11.97;100.00;99874.88;6188397;22;46524;-86
2022/04/22 05:40:40;;;;;;;;;13.00;13.00;;;;;12.05;100.00;99867.09;6215242;22;45344;-86
2022/04/22 05:43:06;;;;;;;;;14.25;13.50;;;;;12.14;100.00;99873.44;6216120;22;44733;-85
2022/04/22 05:45:32;;;;;;;;;13.50;13.50;;;;;12.17;100.00;99863.34;6186940;22;45623;-87
2022/04/22 05:47:58;;;;;;;;;21.50;19.00;;;;;12.30;100.00;99877.28;6163689;22;46182;-87
2022/04/22 05:50:25;;;;;;;;;11.25;10.00;;;;;12.35;100.00;99868.88;6190681;22;44873;-85
2022/04/22 05:52:52;;;;;;;;;17.25;16.00;;;;;12.47;100.00;99867.78;6191306;22;45321;-86
2022/04/22 05:55:23;;;;;;;;;11.25;11.25;;;;;12.61;100.00;99875.38;6189475;22;44758;-84
2022/04/22 05:57:50;;;;;;;;;17.25;17.25;;;;;12.68;100.00;99880.19;6215570;22;45432;-85
2022/04/22 06:00:18;;;;;;;;;13.25;13.25;;;;;12.75;100.00;99884.81;6215150;22;45426;-83
2022/04/22 06:02:44;;;;;;;;;15.00;14.50;;;;;12.79;100.00;99890.72;6214332;22;44796;-88
2022/04/22 06:05:15;;;;;;;;;19.75;17.00;;;;;12.84;100.00;99877.81;6214920;22;45409;-85
2022/04/22 06:07:42;;;;;;;;;11.50;9.25;;;;;12.79;100.00;99888.91;6214506;22;45100;-84
2022/04/22 06:12:53;;;;;;;;;15.50;12.00;;;;;13.00;100.00;99886.09;6214280;22;45435;-85
2022/04/22 06:15:19;;;;;;;;;15.00;15.00;;;;;13.05;100.00;99883.03;6189910;22;45210;-85
2022/04/22 06:17:46;;;;;;;;;15.75;12.50;;;;;13.06;100.00;99885.56;6218796;22;45082;-85
2022/04/22 06:20:11;;;;;;;;;14.25;12.25;;;;;13.11;100.00;99885.16;6199178;22;44584;-86
2022/04/22 06:22:37;;;;;;;;;11.75;9.75;;;;;13.20;100.00;99880.78;6201371;22;44687;-86
2022/04/22 06:25:03;;;;;;;;;9.75;9.00;;;;;13.31;100.00;99883.34;6198179;22;45284;-86
2022/04/22 06:27:37;;;;;;;;;10.25;10.25;;;;;13.34;100.00;99877.72;6223630;22;45281;-85
2022/04/22 06:30:24;;;;;;;;;11.20;10.40;;;;;13.42;100.00;99883.19;6199668;22;44684;-85
2022/04/22 06:32:51;;;;;;;;;12.50;11.50;;;;;13.56;100.00;99877.41;6227257;22;44750;-86
2022/04/22 06:35:18;;;;;;;;;16.25;13.25;;;;;13.66;100.00;99872.06;6200602;22;44752;-84
2022/04/22 06:37:50;;;;;;;;;14.50;12.25;;;;;13.69;100.00;99869.13;6199097;22;46929;-84
2022/04/22 06:45:48;;;;;;;;;10.00;10.00;;;;;14.07;100.00;99867.28;6217728;22;44674;-85
2022/04/22 06:48:16;;;;;;;;;14.50;11.25;;;;;14.19;100.00;99865.28;6218975;22;45006;-86
2022/04/22 06:50:44;;;;;;;;;10.75;9.00;;;;;14.18;100.00;99871.63;6221762;22;44813;-86
2022/04/22 06:53:10;;;;;;;;;6.00;6.00;;;;;14.09;100.00;99874.19;6187439;23;44903;-85
2022/04/22 06:55:37;;;;;;;;;15.50;14.50;;;;;14.11;100.00;99871.34;6211511;22;44742;-84
2022/04/22 06:58:05;;;;;;;;;14.75;13.75;;;;;14.09;100.00;99868.84;6195085;22;45236;-83
2022/04/22 07:00:31;;;;;;;;;11.00;11.00;;;;;14.16;100.00;99871.75;6200647;22;44635;-84
2022/04/22 07:02:56;;;;;;;;;17.00;14.00;;;;;14.24;100.00;99874.53;6192194;22;44636;-86
2022/04/22 07:05:22;;;;;;;;;17.75;14.25;;;;;14.28;100.00;99875.09;6217592;22;44667;-85
2022/04/22 07:07:48;;;;;;;;;14.00;13.25;;;;;14.25;100.00;99872.72;6215913;22;45343;-86
2022/04/22 07:10:14;;;;;;;;;7.75;7.75;;;;;14.20;100.00;99873.16;6188346;22;44902;-85
2022/04/22 07:12:39;;;;;;;;;15.25;14.00;;;;;14.21;100.00;99874.00;6215493;22;45398;-85
2022/04/22 07:15:06;;;;;;;;;15.50;12.75;;;;;14.11;100.00;99874.03;6189757;22;45277;-85
2022/04/22 07:17:35;;;;;;;;;14.50;14.00;;;;;14.08;100.00;99864.50;6193003;22;46825;-86
2022/04/22 07:20:04;;;;;;;;;15.25;13.75;;;;;14.09;100.00;99868.00;6223421;22;45180;-84
2022/04/22 07:22:29;;;;;;;;;19.50;15.25;;;;;14.05;100.00;99854.09;6221798;22;45345;-86
2022/04/22 07:24:56;;;;;;;;;18.50;13.25;;;;;13.94;100.00;99864.97;6196297;22;44945;-85
2022/04/22 07:27:27;;;;;;;;;18.75;14.75;;;;;14.04;100.00;99867.59;6195565;22;45370;-84
2022/04/22 07:29:53;;;;;;;;;10.75;10.25;;;;;14.04;100.00;99860.44;6222359;22;44735;-85
2022/04/22 07:32:19;;;;;;;;;15.25;14.00;;;;;14.15;100.00;99867.41;6198802;22;44753;-84
2022/04/22 07:34:45;;;;;;;;;10.00;10.00;;;;;14.23;100.00;99872.88;6189857;22;44808;-85
2022/04/22 07:37:10;;;;;;;;;18.75;16.00;;;;;14.25;100.00;99860.19;6219828;22;45179;-85
2022/04/22 07:39:39;;;;;;;;;14.75;12.50;;;;;14.08;100.00;99864.50;6223851;22;45217;-86
2022/04/22 07:42:07;;;;;;;;;17.50;14.25;;;;;14.04;100.00;99865.78;6226498;22;44797;-83
2022/04/22 07:47:22;;;;;;;;;17.25;14.00;;;;;14.32;100.00;99850.63;6221155;22;45378;-85
2022/04/22 07:49:48;;;;;;;;;14.00;14.00;;;;;14.40;100.00;99849.84;6220053;22;45276;-84
2022/04/22 07:52:13;;;;;;;;;24.75;20.25;;;;;14.48;100.00;99859.84;6216624;22;45085;-85
2022/04/22 07:54:39;;;;;;;;;19.25;18.00;;;;;14.64;100.00;99857.34;6214501;22;44806;-85
2022/04/22 07:57:04;;;;;;;;;18.00;18.00;;;;;14.77;100.00;99855.16;6187864;22;46534;-85
2022/04/22 07:59:30;;;;;;;;;14.50;11.75;;;;;14.91;100.00;99851.94;6216845;22;44781;-85
2022/04/22 08:01:59;;;;;;;;;8.25;8.25;;;;;14.94;100.00;99848.16;6216610;22;44866;-85
2022/04/22 08:04:25;;;;;;;;;14.00;13.25;;;;;14.80;100.00;99864.72;6190018;22;44834;-84
2022/04/22 08:06:51;;;;;;;;;15.25;14.50;;;;;14.89;100.00;99858.44;6189925;22;46919;-86
2022/04/22 08:09:17;;;;;;;;;18.00;13.50;;;;;14.88;100.00;99862.94;6190985;22;45422;-83
2022/04/22 08:11:43;;;;;;;;;16.25;12.50;;;;;15.04;100.00;99869.47;6219750;22;45110;-84
2022/04/22 08:14:12;;;;;;;;;16.00;13.50;;;;;15.21;100.00;99854.38;6192610;22;44823;-85
2022/04/22 08:16:39;;;;;;;;;12.50;10.50;;;;;15.36;100.00;99861.69;6227082;22;45204;-85
2022/04/22 08:19:05;;;;;;;;;15.75;14.25;;;;;15.53;100.00;99864.53;6233001;22;44694;-85
2022/04/22 08:21:33;;;;;;;;;19.25;16.25;;;;;15.39;100.00;99848.03;6205476;22;44788;-83
2022/04/22 08:24:01;;;;;;;;;13.00;13.00;;;;;15.25;100.00;99856.59;6232158;22;44906;-85
2022/04/22 08:26:28;;;;;;;;;17.50;17.25;;;;;15.25;100.00;99840.56;6233953;22;45182;-84
2022/04/22 08:28:54;;;;;;;;;12.00;11.00;;;;;15.24;100.00;99846.06;6227147;22;44802;-86
2022/04/22 08:31:19;;;;;;;;;13.50;12.50;;;;;15.29;100.00;99838.41;6195540;22;44729;-85
2022/04/22 08:33:46;;;;;;;;;17.25;13.75;;;;;15.44;100.00;99839.53;6197119;22;45221;-84
2022/04/22 08:36:12;;;;;;;;;14.25;14.25;;;;;15.63;100.00;99839.38;6196022;22;46675;-86
2022/04/22 08:38:37;;;;;;;;;14.25;14.25;;;;;15.80;100.00;99834.09;6222735;22;44675;-85
2022/04/22 08:41:04;;;;;;;;;14.25;13.75;;;;;15.81;100.00;99828.59;6221215;22;44792;-85
2022/04/22 08:43:30;;;;;;;;;12.00;9.00;;;;;15.88;100.00;99832.31;6221392;22;45522;-86
2022/04/22 08:46:04;;;;;;;;;18.25;13.50;;;;;15.94;100.00;99830.81;6192471;22;44970;-85
2022/04/22 08:51:33;;;;;;;;;14.25;13.25;;;;;16.24;100.00;99821.41;6218563;22;44676;-84
2022/04/22 08:53:59;;;;;;;;;14.25;13.00;;;;;16.41;100.00;99830.38;6187575;22;45279;-84
2022/04/22 08:56:25;;;;;;;;;13.50;13.50;;;;;16.43;100.00;99817.63;6184387;23;46741;-86
2022/04/22 08:58:51;;;;;;;;;13.80;12.20;;;;;16.40;100.00;99816.13;6212876;22;45214;-85
2022/04/22 09:01:17;;;;;;;;;13.00;13.00;;;;;16.32;100.00;99821.44;6215228;22;45280;-85
2022/04/22 09:03:43;;;;;;;;;12.75;9.75;;;;;16.23;100.00;99830.47;6187960;22;45635;-85
2022/04/22 09:06:10;;;;;;;;;14.50;14.50;;;;;16.38;100.00;99822.63;6188079;22;46815;-87
2022/04/22 09:08:36;;;;;;;;;11.20;11.20;;;;;16.55;100.00;99831.59;6187442;22;44801;-86
2022/04/22 09:11:03;;;;;;;;;8.25;8.25;;;;;16.48;100.00;99825.19;6215914;22;44852;-85
2022/04/22 09:13:30;;;;;;;;;12.75;11.75;;;;;16.52;100.00;99815.81;6189997;22;45513;-84
2022/04/22 09:15:57;;;;;;;;;14.00;12.25;;;;;16.57;100.00;99822.34;6216215;22;45195;-85
2022/04/22 09:18:25;;;;;;;;;15.40;15.00;;;;;16.59;100.00;99823.06;6215744;22;45502;-84
2022/04/22 09:20:56;;;;;;;;;13.00;12.25;;;;;16.71;100.00;99810.16;6216637;22;44714;-84
2022/04/22 09:23:35;;;;;;;;;8.75;8.75;;;;;16.70;100.00;99828.09;6225793;22;45200;-84
2022/04/22 09:26:03;;;;;;;;;18.00;15.50;;;;;16.75;100.00;99818.75;6227640;22;45142;-85
2022/04/22 09:28:30;;;;;;;;;12.20;12.20;;;;;16.90;100.00;99815.25;6192682;22;45316;-85
2022/04/22 09:31:00;;;;;;;;;13.20;11.40;;;;;16.97;100.00;99812.75;6224094;22;44755;-85
2022/04/22 09:33:43;;;;;;;;;13.25;12.25;;;;;17.14;100.00;99810.91;6196916;22;45233;-85
2022/04/22 09:44:56;;;;;;;;;7.75;7.75;;;;;17.42;100.00;99804.19;6201080;22;45276;-86
2022/04/22 09:47:26;;;;;;;;;13.60;13.60;;;;;17.47;100.00;99823.31;6196835;22;46720;-86
2022/04/22 09:49:51;;;;;;;;;15.80;12.80;;;;;17.45;100.00;99797.63;6198292;22;45182;-86
2022/04/22 09:52:36;;;;;;;;;10.75;8.75;;;;;17.40;99.34;99808.03;6220313;22;44663;-85
2022/04/22 09:55:04;;;;;;;;;8.75;8.75;;;;;17.41;99.76;99805.19;6192037;22;44962;-85
2022/04/22 09:57:52;;;;;;;;;9.40;9.40;;;;;17.60;99.58;99803.13;6195666;22;45450;-85
2022/04/22 10:00:22;;;;;;;;;8.80;8.40;;;;;17.62;98.91;99801.97;6224310;22;44689;-85
2022/04/22 10:02:52;;;;;;;;;10.20;8.60;;;;;17.57;95.77;99798.13;6198665;22;44780;-85
2022/04/22 10:05:26;;;;;;;;;10.75;10.75;;;;;17.44;97.57;99787.88;6225893;22;44810;-84
2022/04/22 10:07:53;;;;;;;;;11.75;9.25;;;;;17.40;95.40;99795.44;6226367;22;45190;-86
2022/04/22 10:10:34;;;;;;;;;11.00;7.40;;;;;17.36;95.62;99774.50;6226230;22;44630;-85
2022/04/22 10:13:02;;;;;;;;;11.00;8.80;;;;;17.39;95.28;99780.34;6225081;22;45313;-87
2022/04/22 10:15:30;;;;;;;;;11.40;9.80;;;;;17.44;94.17;99777.16;6224493;22;44861;-85
2022/04/22 10:17:56;;;;;;;;;10.00;6.50;;;;;17.47;93.74;99784.88;6224716;22;45199;-85
2022/04/22 10:20:24;;;;;;;;;9.00;9.00;;;;;17.51;92.70;99767.41;6195522;22;45470;-86
2022/04/22 10:22:50;;;;;;;;;6.20;5.00;;;;;17.76;92.72;99784.34;6219580;22;44703;-87
2022/04/22 10:25:16;;;;;;;;;6.75;4.50;;;;;17.92;90.33;99778.06;6220956;22;44811;-87
2022/04/22 10:27:43;;;;;;;;;8.60;6.60;;;;;18.02;90.78;99784.06;6194194;22;45413;-85
2022/04/22 10:30:13;;;;;;;;;10.80;8.60;;;;;18.10;89.90;99777.84;6194343;22;45403;-85
2022/04/22 10:32:41;;;;;;;;;12.20;8.20;;;;;18.02;87.28;99777.84;6228738;22;45177;-86
2022/04/22 10:35:07;;;;;;;;;4.20;3.60;;;;;18.09;81.21;99766.25;6220180;22;45584;-86
2022/04/22 10:37:38;;;;;;;;;10.40;6.40;;;;;18.10;78.48;99775.97;6196164;22;47249;-86
2022/04/22 10:40:05;;;;;;;;;5.80;5.80;;;;;18.19;81.85;99780.31;6199611;22;45425;-85
2022/04/22 10:42:35;;;;;;;;;3.80;3.00;;;;;18.41;85.72;99770.59;6198381;22;44755;-86
2022/04/22 10:47:57;;;;;;;;;7.00;7.00;;;;;18.50;82.41;99780.28;6217954;22;44983;-86
2022/04/22 10:50:42;;;;;;;;;5.60;5.60;;;;;18.58;80.05;99781.28;6214378;22;44813;-85
2022/04/22 10:53:34;;;;;;;;;3.20;3.20;;;;;18.57;77.92;99772.38;6189797;22;44656;-86
2022/04/22 10:56:28;;;;;;;;;5.80;5.00;;;;;18.66;78.71;99770.44;6188383;22;45261;-86
2022/04/22 10:59:15;;;;;;;;;11.20;8.00;;;;;18.61;78.97;99754.84;6215697;22;45221;-86
2022/04/22 11:01:43;;;;;;;;;8.20;6.80;;;;;18.55;79.17;99766.31;6187900;22;44795;-86
2022/04/22 11:04:33;;;;;;;;;5.60;4.40;;;;;18.68;80.84;99760.34;6188801;22;44786;-86
2022/04/22 11:06:59;;;;;;;;;7.80;6.60;;;;;18.60;77.72;99763.91;6190196;22;44926;-86
2022/04/22 11:09:30;;;;;;;;;12.50;8.00;;;;;18.66;78.72;99754.28;6193005;22;47401;-86
2022/04/22 11:11:57;;;;;;;;;6.80;3.80;;;;;18.74;79.79;99760.50;6221307;22;44822;-84
2022/04/22 11:14:27;;;;;;;;;8.00;7.80;;;;;18.95;81.03;99758.97;6219416;22;45289;-86
2022/04/22 11:16:54;;;;;;;;;8.00;5.20;;;;;19.07;78.69;99752.16;6191720;22;45290;-85
2022/04/22 11:19:19;;;;;;;;;6.80;6.80;;;;;19.15;76.88;99751.28;6215612;22;45279;-86
2022/04/22 11:21:52;;;;;;;;;6.25;6.25;;;;;19.23;77.42;99752.00;6188396;22;45358;-85
2022/04/22 11:24:32;;;;;;;;;8.80;8.80;;;;;19.28;76.30;99748.75;6189464;22;44852;-86
2022/04/22 11:27:26;;;;;;;;;6.00;5.60;;;;;19.39;76.04;99756.41;6218978;22;45315;-85
2022/04/22 11:29:57;;;;;;;;;7.00;5.00;;;;;19.18;74.50;99750.88;6218232;22;46204;-86
2022/04/22 11:32:27;;;;;;;;;7.80;6.40;;;;;19.20;77.36;99746.16;6192395;22;44693;-86
2022/04/22 11:35:16;;;;;;;;;12.60;10.80;;;;;19.21;78.04;99748.66;6193671;22;45350;-86
2022/04/22 11:37:43;;;;;;;;;7.40;7.00;;;;;18.96;75.61;99748.06;6196200;22;44865;-84
2022/04/22 11:40:09;;;;;;;;;5.20;5.00;;;;;18.94;79.10;99744.69;6200591;22;46711;-85
2022/04/22 11:42:44;;;;;;;;;9.20;8.00;;;;;18.95;78.02;99745.53;6199039;22;45386;-86
2022/04/22 11:45:15;;;;;;;;;8.20;6.00;;;;;19.04;78.95;99733.66;6226967;22;44757;-85
2022/04/22 11:47:41;;;;;;;;;11.75;8.25;;;;;19.13;77.00;99713.72;6207440;22;45264;-84
2022/04/22 11:50:08;;;;;;;;;7.60;4.80;;;;;19.15;77.58;99735.94;6203589;22;47008;-85
2022/04/22 11:52:34;;;;;;;;;6.40;6.40;;;;;19.35;75.20;99738.94;6198387;22;45381;-86
2022/04/22 11:55:01;;;;;;;;;6.20;4.00;;;;;19.37;75.48;99733.38;6221109;22;44739;-86
2022/04/22 11:57:26;;;;;;;;;9.20;7.20;;;;;19.44;76.69;99739.72;6192015;22;45446;-85
2022/04/22 12:05:34;;;;;;;;;9.80;8.00;;;;;19.29;78.39;99714.59;6220073;22;45173;-86
2022/04/22 12:08:07;;;;;;;;;8.75;7.00;;;;;19.37;75.42;99722.59;6189751;22;44910;-86
2022/04/22 12:10:33;;;;;;;;;8.50;7.25;;;;;19.46;74.57;99722.31;6187846;22;45265;-85
2022/04/22 12:13:03;;;;;;;;;8.00;6.20;;;;;19.42;74.79;99720.19;6216541;22;44673;-85
2022/04/22 12:15:29;;;;;;;;;4.80;4.80;;;;;19.45;77.79;99712.56;6217591;22;44765;-85
2022/04/22 12:17:55;;;;;;;;;8.00;8.00;;;;;19.40;77.83;99706.91;6196881;22;45456;-85
2022/04/22 12:20:20;;;;;;;;;7.25;7.25;;;;;19.46;77.59;99711.53;6197162;22;45908;-87
2022/04/22 12:22:49;;;;;;;;;7.00;7.00;;;;;19.49;77.17;99705.78;6223966;22;44658;-85
2022/04/22 12:25:23;;;;;;;;;10.00;7.20;;;;;19.50;76.91;99704.78;6194929;22;44608;-86